M I D A S
Marine Information and Data Acquisition System
Tripno 2010 of the Zeeleeuw from 2010-10-12 08:21:20 to 2010-10-12 16:04:30
Back to CruiseResearch ActivitiesStationsMapUnderway DataData graphs

EquipmentUnitsComment
TimeDGPSUTC
LatitudeDGPSDM.mWGS84
LongitudeDGPSDM.mWGS84
TemperatureSBE03/SBE38deg celciusITS90
ConductivitySBE21S/mITS90
SalinitySBE21 Practical Salinity Units
ChlorophylAChelsea fluorimeterg/lCalibrated in Aceton
Missing or incorrect values are displayed as -999
Sea surface data collected by the RV Zeeleeuw from 2010-10-12 07:04:29 to 2010-10-13 10:25:50
Time Latitude Longitude Temperature Conductivity Salinity ChlorophylA
2010-10-12 07:05:34 51°13.662 2°55.961 21.1449 0.018044 0.096857 -0.617504
2010-10-12 07:06:34 51°13.662 2°55.961 21.1492 0.018044 0.09686 -0.58268
2010-10-12 07:07:34 51°13.662 2°55.961 21.1368 0.01794 0.096322 -0.617504
2010-10-12 07:08:34 51°13.661 2°55.961 21.1404 0.01794 0.096329 -0.617504
2010-10-12 07:09:33 51°13.662 2°55.961 21.1393 0.018044 0.096879 -0.617504
2010-10-12 07:10:34 51°13.662 2°55.96 21.1542 0.018044 0.096885 -0.58268
2010-10-12 07:11:33 51°13.662 2°55.961 21.1441 0.018044 0.096891 -0.617504
2010-10-12 07:12:32 51°13.662 2°55.96 21.1471 0.01794 0.096354 -0.617504
2010-10-12 07:13:31 51°13.662 2°55.961 21.1454 0.018044 0.096904 -0.58268
2010-10-12 07:14:30 51°13.662 2°55.961 18.2491 0.026364 0.141205 -0.58268
2010-10-12 07:15:30 51°13.662 2°55.96 17.3394 3.721668 27.493332 -0.269263
2010-10-12 07:16:29 51°13.662 2°55.961 17.1137 3.630778 27.218553 -0.304087
2010-10-12 07:17:30 51°13.663 2°55.961 16.4283 3.648286 27.595186 -0.269263
2010-10-12 07:18:29 51°13.663 2°55.961 16.0287 3.658628 28.150321 -0.199615
2010-10-12 07:19:30 51°13.663 2°55.96 15.8291 3.658421 28.399885 -0.164791
2010-10-12 07:20:30 51°13.662 2°55.961 15.7062 3.657158 28.513526 -0.164791
2010-10-12 07:21:29 51°13.662 2°55.96 15.6767 3.655261 28.581822 -0.129967
2010-10-12 07:22:30 51°13.662 2°55.961 15.6324 3.654946 28.613548 -0.129967
2010-10-12 07:23:29 51°13.662 2°55.96 15.6029 3.653364 28.630565 -0.129967
2010-10-12 07:24:30 51°13.662 2°55.96 15.5772 3.654103 28.65754 -0.129967
2010-10-12 07:25:29 51°13.662 2°55.959 15.5462 3.660747 28.738186 -0.129967
2010-10-12 07:26:30 51°13.662 2°55.959 15.5215 3.69059 29.025338 -0.129967
2010-10-12 07:27:29 51°13.662 2°55.961 15.489 3.714107 29.2469 -0.129967
2010-10-12 07:28:30 51°13.661 2°55.96 15.5111 3.729504 29.403359 -0.025495
2010-10-12 07:29:32 51°13.669 2°55.924 15.5669 3.699976 29.118355 -0.060319
2010-10-12 07:30:33 51°13.688 2°55.833 15.4565 3.710626 29.198207 0.113802
2010-10-12 07:31:33 51°13.696 2°55.768 15.3593 3.685635 29.050807 0.078977
2010-10-12 07:32:33 51°13.69 2°55.751 15.279 3.645143 28.767091 0.113802
2010-10-12 07:33:33 51°13.726 2°55.733 15.233 3.578715 28.245064 0.113802
2010-10-12 07:34:32 51°13.81 2°55.65 15.2447 3.561002 28.117395 0.18345
2010-10-12 07:35:31 51°13.93 2°55.557 15.2006 3.550037 28.010695 0.078977
2010-10-12 07:36:30 51°14.069 2°55.455 15.185 3.591579 28.40704 0.18345
2010-10-12 07:37:29 51°14.21 2°55.334 15.1459 3.638185 28.827441 0.113802
2010-10-12 07:38:30 51°14.352 2°55.19 15.1273 3.642931 28.904574 0.009329
2010-10-12 07:39:30 51°14.492 2°55.032 15.1067 3.730985 29.689574 0.148626
2010-10-12 07:40:30 51°14.598 2°54.79 14.9233 3.771483 30.076833 0.218274
2010-10-12 07:41:30 51°14.556 2°54.485 14.9856 3.809559 30.530193 0.427218
2010-10-12 07:42:29 51°14.407 2°54.209 15.0455 3.844575 30.805151 0.322746
2010-10-12 07:43:29 51°14.276 2°53.894 15.0053 3.856916 30.889631 0.322746
2010-10-12 07:44:29 51°14.164 2°53.553 15.0071 3.859763 30.916207 0.287922
2010-10-12 07:45:29 51°14.049 2°53.211 15.0128 3.869784 31.016301 0.287922
2010-10-12 07:46:29 51°13.931 2°52.87 15.0079 3.873792 31.046086 0.287922
2010-10-12 07:47:29 51°13.808 2°52.536 14.9888 3.86989 31.02202 0.496866
2010-10-12 07:48:29 51°13.681 2°52.202 14.9566 3.858287 30.939963 0.53169
2010-10-12 07:49:30 51°13.551 2°51.861 14.897 3.863351 31.00607 0.322746
2010-10-12 07:50:29 51°13.431 2°51.524 14.9204 3.856811 30.97275 0.113802
2010-10-12 07:51:30 51°13.305 2°51.184 14.9426 3.853014 30.937619 0.044153
2010-10-12 07:52:30 51°13.185 2°50.849 15.0036 3.902167 31.348262 0.009329
2010-10-12 07:53:30 51°13.065 2°50.514 15.0103 3.928643 31.546306 -0.060319
2010-10-12 07:54:30 51°12.945 2°50.177 14.9916 3.933496 31.588495 -0.060319
2010-10-12 07:55:29 51°12.825 2°49.846 15.0093 3.938665 31.643882 -0.060319
2010-10-12 07:56:29 51°12.702 2°49.514 15.0145 3.954593 31.773026 -0.095143
2010-10-12 07:57:29 51°12.581 2°49.184 15.0129 3.963876 31.851238 -0.095143
2010-10-12 07:58:30 51°12.458 2°48.843 15.0071 3.965248 31.875182 -0.060319
2010-10-12 07:59:29 51°12.336 2°48.52 15.0318 3.984236 32.034855 -0.129967
2010-10-12 08:00:30 51°12.216 2°48.181 15.0142 3.994891 32.126032 -0.164791
2010-10-12 08:01:29 51°12.097 2°47.855 15.0272 4.000483 32.184219 -0.164791
2010-10-12 08:02:30 51°11.973 2°47.518 15.0815 4.020316 32.337255 -0.199615
2010-10-12 08:03:29 51°11.859 2°47.186 15.0771 4.041098 32.488719 -0.199615
2010-10-12 08:04:30 51°11.74 2°46.843 15.0681 4.04342 32.51766 -0.199615
2010-10-12 08:05:29 51°11.623 2°46.515 15.106 4.047429 32.564897 -0.234439
2010-10-12 08:06:30 51°11.501 2°46.177 15.1616 4.082983 32.842502 -0.269263
2010-10-12 08:07:29 51°11.387 2°45.847 15.1794 4.109675 33.043491 -0.269263
2010-10-12 08:08:29 51°11.272 2°45.511 15.1903 4.12835 33.190138 -0.304087
2010-10-12 08:09:29 51°11.155 2°45.175 15.2201 4.134892 33.247586 -0.234439
2010-10-12 08:10:29 51°11.034 2°44.846 15.2337 4.154517 33.396303 -0.269263
2010-10-12 08:11:29 51°10.921 2°44.515 15.2747 4.166756 33.488881 -0.234439
2010-10-12 08:12:29 51°10.806 2°44.191 15.3013 4.183217 33.603228 -0.164791
2010-10-12 08:13:29 51°10.711 2°43.853 15.3172 4.199255 33.726552 -0.199615
2010-10-12 08:14:29 51°10.626 2°43.504 15.3423 4.213078 33.837692 -0.164791
2010-10-12 08:15:29 51°10.542 2°43.156 15.345 4.220464 33.887806 -0.060319
2010-10-12 08:16:30 51°10.447 2°42.811 15.3765 4.227428 33.939289 -0.060319
2010-10-12 08:17:29 51°10.372 2°42.47 15.3752 4.233021 33.968074 -0.095143
2010-10-12 08:18:30 51°10.304 2°42.11 15.3665 4.236081 33.994874 -0.095143
2010-10-12 08:19:29 51°10.234 2°41.762 15.3696 4.241568 34.051249 -0.129967
2010-10-12 08:20:30 51°10.165 2°41.398 15.3767 4.244312 34.07197 -0.164791
2010-10-12 08:21:29 51°10.086 2°41.051 15.3847 4.249166 34.107724 -0.164791
2010-10-12 08:22:30 51°10.014 2°40.685 15.3926 4.253281 34.140098 -0.164791
2010-10-12 08:23:29 51°9.944 2°40.333 15.3982 4.258663 34.181226 -0.199615
2010-10-12 08:24:30 51°9.87 2°39.971 15.4038 4.262778 34.214898 -0.234439
2010-10-12 08:25:29 51°9.8 2°39.62 15.3914 4.265522 34.237563 -0.269263
2010-10-12 08:26:29 51°9.726 2°39.263 15.3692 4.267633 34.266962 -0.234439
2010-10-12 08:27:30 51°9.654 2°38.896 15.3519 4.266894 34.272753 -0.234439
2010-10-12 08:28:29 51°9.586 2°38.544 15.3487 4.264362 34.265049 -0.199615
2010-10-12 08:29:30 51°9.503 2°38.185 15.336 4.260563 34.243344 -0.199615
2010-10-12 08:30:29 51°9.412 2°37.844 15.3376 4.257608 34.220061 -0.164791
2010-10-12 08:31:30 51°9.315 2°37.498 15.3127 4.256659 34.210873 -0.164791
2010-10-12 08:32:29 51°9.237 2°37.152 15.2897 4.252227 34.195876 -0.129967
2010-10-12 08:33:30 51°9.156 2°36.797 15.2946 4.245685 34.152079 -0.164791
2010-10-12 08:34:29 51°9.095 2°36.537 15.2959 4.244313 34.135825 -0.129967
2010-10-12 08:35:30 51°9.075 2°36.343 15.2892 4.241358 34.107956 -0.095143
2010-10-12 08:36:30 51°9.124 2°36.246 15.2837 4.235871 34.067102 -0.060319
2010-10-12 08:37:30 51°9.235 2°36.134 15.3326 4.23661 34.074395 -0.025495
2010-10-12 08:38:29 51°9.293 2°36.095 15.4219 4.250644 34.150958 -0.164791
2010-10-12 08:39:29 51°9.315 2°36.093 15.4449 4.275019 34.300578 -0.269263
2010-10-12 08:40:29 51°9.319 2°36.082 15.4547 4.282511 34.351448 -0.304087
2010-10-12 08:41:29 51°9.314 2°36.067 15.5112 4.285466 34.362902 -0.234439
2010-10-12 08:42:29 51°9.315 2°36.056 15.5039 4.289686 34.353676 -0.304087
2010-10-12 08:43:30 51°9.318 2°36.046 15.532 4.289686 34.35237 -0.304087
2010-10-12 08:44:29 51°9.318 2°36.042 15.5475 4.293485 34.361582 -0.269263
2010-10-12 08:45:30 51°9.324 2°36.039 15.5663 4.296123 34.373449 -0.304087
2010-10-12 08:46:29 51°9.331 2°36.04 15.5775 4.2976 34.374273 -0.269263
2010-10-12 08:47:30 51°9.336 2°36.043 15.5907 4.299078 34.377054 -0.304087
2010-10-12 08:48:29 51°9.342 2°36.042 15.5826 4.300344 34.382511 -0.304087
2010-10-12 08:49:30 51°9.351 2°36.041 15.5835 4.300766 34.388242 -0.338911
2010-10-12 08:50:30 51°9.36 2°36.039 15.5893 4.301505 34.390283 -0.338911
2010-10-12 08:51:29 51°9.365 2°36.038 15.587 4.30161 34.392531 -0.304087
2010-10-12 08:52:30 51°9.367 2°36.037 15.5878 4.301716 34.392823 -0.304087
2010-10-12 08:53:29 51°9.371 2°36.029 15.5801 4.301927 34.394058 -0.338911
2010-10-12 08:54:30 51°9.377 2°36.012 15.5782 4.301821 34.397028 -0.304087
2010-10-12 08:55:29 51°9.383 2°35.994 15.5904 4.301399 34.395862 -0.338911
2010-10-12 08:56:30 51°9.387 2°35.978 15.6051 4.30351 34.402995 -0.304087
2010-10-12 08:57:29 51°9.388 2°35.981 15.6326 4.30467 34.401635 -0.304087
2010-10-12 08:58:30 51°9.389 2°35.991 15.6384 4.30773 34.408127 -0.304087
2010-10-12 08:59:29 51°9.394 2°35.998 15.6396 4.30868 34.411399 -0.234439
2010-10-12 09:00:30 51°9.407 2°35.998 15.6429 4.309102 34.411912 -0.234439
2010-10-12 09:01:30 51°9.427 2°35.986 15.6464 4.310263 34.417721 -0.269263
2010-10-12 09:02:30 51°9.432 2°36.033 15.6411 4.311318 34.427799 -0.304087
2010-10-12 09:03:30 51°9.416 2°36.243 15.6191 4.311318 34.43171 -0.269263
2010-10-12 09:04:29 51°9.425 2°36.503 15.5244 4.305198 34.403744 -0.234439
2010-10-12 09:05:30 51°9.426 2°36.784 15.4474 4.29148 34.361907 -0.234439
2010-10-12 09:06:29 51°9.414 2°37.063 15.3513 4.283989 34.351616 -0.234439
2010-10-12 09:07:30 51°9.406 2°37.321 15.324 4.269005 34.295638 -0.164791
2010-10-12 09:08:29 51°9.418 2°37.436 15.3224 4.260774 34.248512 -0.129967
2010-10-12 09:09:30 51°9.446 2°37.487 15.3177 4.261196 34.25296 -0.164791
2010-10-12 09:10:30 51°9.462 2°37.498 15.3222 4.262041 34.26513 -0.164791
2010-10-12 09:11:30 51°9.468 2°37.488 15.3255 4.26394 34.277621 -0.199615
2010-10-12 09:12:30 51°9.468 2°37.478 15.3266 4.265523 34.28923 -0.164791
2010-10-12 09:13:30 51°9.463 2°37.471 15.3282 4.264679 34.282951 -0.199615
2010-10-12 09:14:30 51°9.454 2°37.462 15.3318 4.264679 34.281641 -0.164791
2010-10-12 09:15:30 51°9.446 2°37.455 15.3383 4.265839 34.288145 -0.199615
2010-10-12 09:16:29 51°9.441 2°37.45 15.344 4.266789 34.290786 -0.164791
2010-10-12 09:17:29 51°9.439 2°37.443 15.3513 4.267422 34.291892 -0.199615
2010-10-12 09:18:29 51°9.438 2°37.438 15.3536 4.267739 34.289498 -0.199615
2010-10-12 09:19:29 51°9.435 2°37.433 15.3597 4.268794 34.295706 -0.269263
2010-10-12 09:20:29 51°9.431 2°37.43 15.3601 4.268899 34.294035 -0.234439
2010-10-12 09:21:30 51°9.425 2°37.428 15.3549 4.269216 34.296224 -0.269263
2010-10-12 09:22:29 51°9.421 2°37.428 15.3413 4.268899 34.297963 -0.199615
2010-10-12 09:23:30 51°9.419 2°37.427 15.331 4.267106 34.294286 -0.199615
2010-10-12 09:24:30 51°9.414 2°37.426 15.3318 4.265523 34.2853 -0.199615
2010-10-12 09:25:30 51°9.411 2°37.427 15.3344 4.265945 34.287784 -0.234439
2010-10-12 09:26:30 51°9.411 2°37.428 15.3378 4.265945 34.287784 -0.199615
2010-10-12 09:27:30 51°9.411 2°37.428 15.3471 4.266683 34.289183 -0.199615
2010-10-12 09:28:30 51°9.407 2°37.428 15.3442 4.26795 34.293359 -0.199615
2010-10-12 09:29:29 51°9.404 2°37.429 15.3409 4.267633 34.294443 -0.164791
2010-10-12 09:30:30 51°9.404 2°37.431 15.3381 4.267 34.290718 -0.199615
2010-10-12 09:31:29 51°9.405 2°37.434 15.3374 4.266789 34.291441 -0.234439
2010-10-12 09:32:30 51°9.406 2°37.439 15.343 4.266789 34.290786 -0.199615
2010-10-12 09:33:29 51°9.407 2°37.443 15.3453 4.268161 34.298529 -0.234439
2010-10-12 09:34:30 51°9.406 2°37.446 15.342 4.26795 34.294668 -0.234439
2010-10-12 09:35:29 51°9.405 2°37.449 15.3465 4.267739 34.295391 -0.234439
2010-10-12 09:36:30 51°9.402 2°37.453 15.3468 4.268161 34.296565 -0.199615
2010-10-12 09:37:29 51°9.4 2°37.455 15.351 4.268266 34.296203 -0.199615
2010-10-12 09:38:30 51°9.4 2°37.454 15.3499 4.268583 34.295774 -0.199615
2010-10-12 09:39:29 51°9.4 2°37.453 15.3532 4.268688 34.296067 -0.234439
2010-10-12 09:40:30 51°9.402 2°37.455 15.3562 4.268899 34.297963 -0.199615
2010-10-12 09:41:29 51°9.403 2°37.459 15.358 4.26911 34.296586 -0.234439
2010-10-12 09:42:29 51°9.405 2°37.463 15.3596 4.269427 34.296156 -0.199615
2010-10-12 09:43:29 51°9.409 2°37.464 15.3694 4.269638 34.297397 -0.234439
2010-10-12 09:44:29 51°9.411 2°37.467 15.3722 4.269954 34.292387 -0.199615
2010-10-12 09:45:30 51°9.414 2°37.468 15.3779 4.27006 34.290718 -0.234439
2010-10-12 09:46:29 51°9.419 2°37.464 15.3889 4.270165 34.286432 -0.199615
2010-10-12 09:47:30 51°9.424 2°37.457 15.3951 4.270798 34.282962 -0.234439
2010-10-12 09:48:30 51°9.429 2°37.449 15.4041 4.271431 34.282108 -0.234439
2010-10-12 09:49:29 51°9.432 2°37.445 15.4136 4.271537 34.27652 -0.199615
2010-10-12 09:50:30 51°9.432 2°37.451 15.4167 4.272064 34.273415 -0.269263
2010-10-12 09:51:29 51°9.429 2°37.458 15.4205 4.272381 34.274296 -0.199615
2010-10-12 09:52:30 51°9.428 2°37.461 15.4271 4.272381 34.269072 -0.199615
2010-10-12 09:53:29 51°9.428 2°37.458 15.4281 4.272697 34.266689 -0.164791
2010-10-12 09:54:29 51°9.429 2°37.453 15.4314 4.272592 34.265742 -0.164791
2010-10-12 09:55:28 51°9.427 2°37.452 15.4428 4.272908 34.26336 -0.234439
2010-10-12 09:56:29 51°9.422 2°37.455 15.4412 4.273541 34.26186 -0.234439
2010-10-12 09:57:29 51°9.417 2°37.457 15.4409 4.273647 34.263459 -0.199615
2010-10-12 09:58:29 51°9.412 2°37.456 15.4338 4.273225 34.262284 -0.199615
2010-10-12 09:59:30 51°9.409 2°37.452 15.4367 4.272803 34.262414 -0.164791
2010-10-12 10:00:29 51°9.409 2°37.445 15.4353 4.272908 34.262055 -0.199615
2010-10-12 10:01:30 51°9.414 2°37.432 15.439 4.272697 34.258858 -0.164791
2010-10-12 10:02:29 51°9.418 2°37.419 15.4499 4.273014 34.259087 -0.199615
2010-10-12 10:03:30 51°9.414 2°37.413 15.4535 4.273752 34.256578 -0.234439
2010-10-12 10:04:29 51°9.403 2°37.415 15.4602 4.274174 34.257753 -0.199615
2010-10-12 10:05:30 51°9.392 2°37.414 15.4565 4.274174 34.254493 -0.164791
2010-10-12 10:06:29 51°9.386 2°37.409 15.4612 4.273963 34.252602 -0.199615
2010-10-12 10:07:29 51°9.38 2°37.404 15.456 4.274807 34.256908 -0.234439
2010-10-12 10:08:29 51°9.375 2°37.4 15.4591 4.274069 34.254199 -0.199615
2010-10-12 10:09:29 51°9.37 2°37.398 15.457 4.274069 34.25094 -0.199615
2010-10-12 10:10:29 51°9.363 2°37.397 15.4601 4.273858 34.25296 -0.164791
2010-10-12 10:11:29 51°9.359 2°37.395 15.4606 4.274069 34.25094 -0.164791
2010-10-12 10:12:29 51°9.356 2°37.394 15.4653 4.274069 34.249636 -0.199615
2010-10-12 10:13:29 51°9.353 2°37.395 15.4674 4.27428 34.248921 -0.199615
2010-10-12 10:14:29 51°9.348 2°37.394 15.4683 4.27428 34.246314 -0.199615
2010-10-12 10:15:29 51°9.344 2°37.394 15.4655 4.27428 34.246314 -0.234439
2010-10-12 10:16:30 51°9.337 2°37.393 15.4637 4.274385 34.246608 -0.199615
2010-10-12 10:17:30 51°9.33 2°37.396 15.4636 4.273963 34.246084 -0.164791
2010-10-12 10:18:30 51°9.322 2°37.395 15.466 4.273752 34.244845 -0.234439
2010-10-12 10:19:29 51°9.319 2°37.395 15.463 4.273647 34.241945 -0.164791
2010-10-12 10:20:29 51°9.316 2°37.396 15.4611 4.273541 34.243605 -0.199615
2010-10-12 10:21:29 51°9.312 2°37.401 15.4649 4.273224 34.240769 -0.164791
2010-10-12 10:22:29 51°9.306 2°37.404 15.4658 4.273435 34.241357 -0.234439
2010-10-12 10:23:29 51°9.302 2°37.406 15.4609 4.273435 34.240054 -0.199615
2010-10-12 10:24:29 51°9.3 2°37.41 15.4648 4.272908 34.238584 -0.199615
2010-10-12 10:25:29 51°9.293 2°37.411 15.4654 4.273013 34.236272 -0.234439
2010-10-12 10:26:30 51°9.285 2°37.412 15.4619 4.272697 34.232784 -0.234439
2010-10-12 10:27:29 51°9.279 2°37.412 15.4619 4.271958 34.229423 -0.199615
2010-10-12 10:28:30 51°9.273 2°37.412 15.4611 4.272169 34.22936 -0.199615
2010-10-12 10:29:29 51°9.269 2°37.41 15.4637 4.271642 34.225284 -0.199615
2010-10-12 10:30:30 51°9.265 2°37.405 15.461 4.271642 34.224632 -0.199615
2010-10-12 10:31:29 51°9.263 2°37.399 15.4628 4.270903 34.22127 -0.199615
2010-10-12 10:32:29 51°9.261 2°37.391 15.462 4.270797 34.219023 -0.164791
2010-10-12 10:33:29 51°9.259 2°37.387 15.4613 4.271008 34.219611 -0.234439
2010-10-12 10:34:29 51°9.258 2°37.387 15.4614 4.270692 34.218728 -0.164791
2010-10-12 10:35:29 51°9.259 2°37.384 15.4612 4.270586 34.217132 -0.199615
2010-10-12 10:36:29 51°9.26 2°37.379 15.4623 4.270481 34.216186 -0.164791
2010-10-12 10:37:30 51°9.263 2°37.375 15.4653 4.27027 34.212993 -0.199615
2010-10-12 10:38:29 51°9.267 2°37.368 15.4672 4.271114 34.21665 -0.199615
2010-10-12 10:39:30 51°9.269 2°37.36 15.4641 4.270797 34.213164 -0.234439
2010-10-12 10:40:29 51°9.275 2°37.348 15.4666 4.270692 34.214822 -0.234439
2010-10-12 10:41:30 51°9.281 2°37.329 15.4717 4.270164 34.209444 -0.199615
2010-10-12 10:42:29 51°9.287 2°37.31 15.4753 4.272169 34.222197 -0.199615
2010-10-12 10:43:30 51°9.289 2°37.295 15.4798 4.269742 34.198506 -0.234439
2010-10-12 10:44:29 51°9.289 2°37.289 15.4847 4.270269 34.198679 -0.199615
2010-10-12 10:45:29 51°9.286 2°37.29 15.4862 4.27048 34.195366 -0.199615
2010-10-12 10:46:29 51°9.278 2°37.293 15.4878 4.270375 34.193771 -0.164791
2010-10-12 10:47:29 51°9.273 2°37.296 15.482 4.27048 34.194066 -0.199615
2010-10-12 10:48:29 51°9.267 2°37.294 15.4829 4.269636 34.188458 -0.199615
2010-10-12 10:49:29 51°9.264 2°37.288 15.4796 4.269109 34.185684 -0.199615
2010-10-12 10:50:29 51°9.263 2°37.281 15.4823 4.268687 34.183204 -0.234439
2010-10-12 10:51:29 51°9.26 2°37.276 15.4786 4.269003 34.184089 -0.199615
2010-10-12 10:52:29 51°9.255 2°37.274 15.4802 4.26837 34.18037 -0.199615
2010-10-12 10:53:30 51°9.249 2°37.277 15.4774 4.268475 34.181315 -0.199615
2010-10-12 10:54:29 51°9.245 2°37.279 15.4738 4.267842 34.176945 -0.199615
2010-10-12 10:55:30 51°9.241 2°37.279 15.4724 4.267842 34.180845 -0.199615
2010-10-12 10:56:29 51°9.237 2°37.279 15.4713 4.267526 34.179311 -0.199615
2010-10-12 10:57:29 51°9.234 2°37.278 15.4698 4.267209 34.176476 -0.234439
2010-10-12 10:58:28 51°9.23 2°37.278 15.4659 4.266893 34.176891 -0.199615
2010-10-12 10:59:29 51°9.225 2°37.28 15.4663 4.266471 34.174411 -0.164791
2010-10-12 11:00:28 51°9.218 2°37.281 15.4636 4.266471 34.175061 -0.199615
2010-10-12 11:01:29 51°9.213 2°37.285 15.4658 4.265943 34.170985 -0.129967
2010-10-12 11:02:29 51°9.208 2°37.285 15.4625 4.265099 34.164074 -0.234439
2010-10-12 11:03:29 51°9.205 2°37.286 15.461 4.264888 34.164784 -0.199615
2010-10-12 11:04:30 51°9.21 2°37.289 15.4637 4.264782 34.163189 -0.199615
2010-10-12 11:05:29 51°9.269 2°37.28 15.4695 4.264149 34.155569 -0.164791
2010-10-12 11:06:30 51°9.357 2°37.194 15.5319 4.265204 34.157222 -0.164791
2010-10-12 11:07:29 51°9.451 2°37.009 15.5435 4.275967 34.201586 -0.164791
2010-10-12 11:08:30 51°9.479 2°36.723 15.5404 4.280716 34.236913 -0.234439
2010-10-12 11:09:29 51°9.436 2°36.398 15.5609 4.284093 34.267768 -0.234439
2010-10-12 11:10:29 51°9.382 2°36.056 15.5845 4.297495 34.366808 -0.304087
2010-10-12 11:11:29 51°9.331 2°35.717 15.6302 4.307836 34.439076 -0.269263
2010-10-12 11:12:29 51°9.282 2°35.383 15.6927 4.318494 34.493216 -0.234439
2010-10-12 11:13:29 51°9.259 2°35.165 15.7204 4.324826 34.500817 -0.269263
2010-10-12 11:14:29 51°9.283 2°35.055 15.7408 4.328202 34.506175 -0.234439
2010-10-12 11:15:29 51°9.335 2°35.023 15.7374 4.33084 34.51211 -0.234439
2010-10-12 11:16:29 51°9.407 2°35.033 15.7041 4.327147 34.486992 -0.234439
2010-10-12 11:17:29 51°9.464 2°35.069 15.6524 4.328836 34.53661 -0.234439
2010-10-12 11:18:29 51°9.498 2°35.123 15.6337 4.324615 34.536146 -0.269263
2010-10-12 11:19:30 51°9.522 2°35.195 15.6296 4.322294 34.529128 -0.304087
2010-10-12 11:20:29 51°9.526 2°35.281 15.6186 4.321133 34.52529 -0.338911
2010-10-12 11:21:30 51°9.519 2°35.376 15.6075 4.318706 34.512092 -0.338911
2010-10-12 11:22:29 51°9.505 2°35.465 15.6002 4.316806 34.504262 -0.304087
2010-10-12 11:23:28 51°9.495 2°35.545 15.6066 4.313851 34.481108 -0.338911
2010-10-12 11:24:29 51°9.493 2°35.622 15.6148 4.315012 34.487566 -0.304087
2010-10-12 11:25:29 51°9.493 2°35.699 15.6114 4.316067 34.492427 -0.269263
2010-10-12 11:26:29 51°9.491 2°35.777 15.6117 4.315856 34.491194 -0.304087
2010-10-12 11:27:29 51°9.486 2°35.854 15.6181 4.315645 34.489307 -0.338911
2010-10-12 11:28:29 51°9.481 2°35.93 15.6152 4.316912 34.496054 -0.304087
2010-10-12 11:29:29 51°9.478 2°36.008 15.6086 4.316067 34.490467 -0.269263
2010-10-12 11:30:29 51°9.475 2°36.086 15.606 4.31459 34.483792 -0.304087
2010-10-12 11:31:30 51°9.471 2°36.163 15.6011 4.313218 34.473486 -0.338911
2010-10-12 11:32:29 51°9.466 2°36.237 15.5954 4.311846 34.464486 -0.338911
2010-10-12 11:33:30 51°9.478 2°36.313 15.5716 4.309103 34.447135 -0.269263
2010-10-12 11:34:29 51°9.514 2°36.383 15.5581 4.299183 34.377998 -0.304087
2010-10-12 11:35:29 51°9.555 2°36.459 15.5579 4.295701 34.356628 -0.338911
2010-10-12 11:36:29 51°9.593 2°36.531 15.556 4.293274 34.336872 -0.304087
2010-10-12 11:37:29 51°9.624 2°36.599 15.5757 4.296439 34.362584 -0.338911
2010-10-12 11:38:29 51°9.655 2°36.666 15.5707 4.30161 34.399707 -0.338911
2010-10-12 11:39:29 51°9.686 2°36.737 15.5635 4.303404 34.416408 -0.304087
2010-10-12 11:40:29 51°9.714 2°36.81 15.5511 4.30256 34.414078 -0.338911
2010-10-12 11:41:29 51°9.732 2°36.889 15.5437 4.300344 34.404696 -0.304087
2010-10-12 11:42:30 51°9.733 2°36.977 15.5401 4.299183 34.399532 -0.338911
2010-10-12 11:43:29 51°9.695 2°37.062 15.5199 4.297284 34.387101 -0.269263
2010-10-12 11:44:30 51°9.63 2°37.107 15.5021 4.280822 34.259318 -0.338911
2010-10-12 11:45:29 51°9.573 2°37.113 15.4895 4.271219 34.18703 -0.338911
2010-10-12 11:46:30 51°9.532 2°37.108 15.4772 4.263199 34.128884 -0.304087
2010-10-12 11:47:29 51°9.502 2°37.097 15.475 4.259084 34.097885 -0.304087
2010-10-12 11:48:29 51°9.477 2°37.079 15.4775 4.257923 34.091385 -0.269263
2010-10-12 11:49:29 51°9.456 2°37.056 15.5005 4.257923 34.085551 -0.304087
2010-10-12 11:50:29 51°9.434 2°37.031 15.4818 4.260033 34.090828 -0.338911
2010-10-12 11:51:29 51°9.414 2°37.005 15.4831 4.257395 34.081477 -0.304087
2010-10-12 11:52:29 51°9.392 2°36.978 15.4759 4.256867 34.068334 -0.338911
2010-10-12 11:53:30 51°9.37 2°36.948 15.481 4.255812 34.069903 -0.304087
2010-10-12 11:54:29 51°9.343 2°36.928 15.4811 4.255707 34.065071 -0.304087
2010-10-12 11:55:30 51°9.276 2°36.908 15.4861 4.256023 34.068552 -0.304087
2010-10-12 11:56:29 51°9.228 2°36.805 15.506 4.259506 34.091939 -0.269263
2010-10-12 11:57:30 51°9.201 2°36.696 15.5183 4.265837 34.132382 -0.234439
2010-10-12 11:58:30 51°9.197 2°36.585 15.523 4.268791 34.149085 -0.269263
2010-10-12 11:59:30 51°9.202 2°36.476 15.5076 4.269741 34.155634 -0.269263
2010-10-12 12:00:29 51°9.211 2°36.373 15.5024 4.266998 34.14147 -0.269263
2010-10-12 12:01:30 51°9.219 2°36.275 15.5078 4.266681 34.144476 -0.304087
2010-10-12 12:02:29 51°9.221 2°36.188 15.5112 4.269319 34.163538 -0.269263
2010-10-12 12:03:29 51°9.221 2°36.099 15.5117 4.270058 34.165604 -0.304087
2010-10-12 12:04:29 51°9.221 2°36.005 15.5157 4.270902 34.171858 -0.269263
2010-10-12 12:05:29 51°9.221 2°35.908 15.5161 4.271535 34.175575 -0.269263
2010-10-12 12:06:29 51°9.219 2°35.81 15.5306 4.273329 34.187079 -0.304087
2010-10-12 12:07:29 51°9.22 2°35.714 15.5401 4.280505 34.242825 -0.269263
2010-10-12 12:08:29 51°9.218 2°35.62 15.5485 4.284831 34.272424 -0.304087
2010-10-12 12:09:30 51°9.219 2°35.527 15.5575 4.287892 34.291989 -0.304087
2010-10-12 12:10:29 51°9.224 2°35.436 15.5792 4.291796 34.320401 -0.269263
2010-10-12 12:11:30 51°9.226 2°35.348 15.589 4.304248 34.410253 -0.304087
2010-10-12 12:12:29 51°9.229 2°35.264 15.5854 4.308469 34.442779 -0.304087
2010-10-12 12:13:30 51°9.234 2°35.177 15.5794 4.308786 34.447569 -0.304087
2010-10-12 12:14:29 51°9.238 2°35.09 15.5704 4.308259 34.448076 -0.269263
2010-10-12 12:15:29 51°9.241 2°35.001 15.5614 4.306465 34.441173 -0.269263
2010-10-12 12:16:28 51°9.245 2°34.915 15.5577 4.304987 34.435141 -0.304087
2010-10-12 12:17:29 51°9.253 2°34.837 15.5625 4.304882 34.436811 -0.304087
2010-10-12 12:18:30 51°9.264 2°34.763 15.5666 4.306781 34.449887 -0.304087
2010-10-12 12:19:29 51°9.278 2°34.695 15.5754 4.308997 34.463179 -0.304087
2010-10-12 12:20:30 51°9.293 2°34.627 15.588 4.311002 34.473925 -0.269263
2010-10-12 12:21:29 51°9.307 2°34.567 15.6655 4.313851 34.482415 -0.304087
2010-10-12 12:22:30 51°9.313 2°34.521 15.6921 4.327042 34.536265 -0.269263
2010-10-12 12:23:29 51°9.309 2°34.487 15.7061 4.329152 34.537478 -0.269263
2010-10-12 12:24:30 51°9.297 2°34.458 15.7094 4.330735 34.54051 -0.234439
2010-10-12 12:25:29 51°9.282 2°34.436 15.7094 4.331052 34.539419 -0.269263
2010-10-12 12:26:30 51°9.263 2°34.416 15.7078 4.331685 34.545722 -0.269263
2010-10-12 12:27:29 51°9.264 2°34.372 15.7127 4.330946 34.53913 -0.269263
2010-10-12 12:28:29 51°9.322 2°34.389 15.7218 4.33179 34.540791 -0.269263
2010-10-12 12:29:29 51°9.392 2°34.588 15.7245 4.332635 34.543103 -0.269263
2010-10-12 12:30:29 51°9.456 2°34.891 15.7158 4.332529 34.540205 -0.234439
2010-10-12 12:31:29 51°9.505 2°35.214 15.6945 4.331157 34.537099 -0.269263
2010-10-12 12:32:29 51°9.555 2°35.537 15.6665 4.330735 34.550955 -0.234439
2010-10-12 12:33:29 51°9.604 2°35.859 15.6031 4.32852 34.556648 -0.234439
2010-10-12 12:34:29 51°9.643 2°36.175 15.5438 4.310791 34.456356 -0.338911
2010-10-12 12:35:28 51°9.681 2°36.489 15.51 4.294118 34.35355 -0.304087
2010-10-12 12:36:29 51°9.72 2°36.82 15.4955 4.285465 34.302832 -0.304087
2010-10-12 12:37:29 51°9.76 2°37.138 15.4145 4.280189 34.271882 -0.269263
2010-10-12 12:38:29 51°9.8 2°37.452 15.4061 4.205795 33.668787 -0.269263
2010-10-12 12:39:29 51°9.838 2°37.766 15.4004 4.202524 33.649142 -0.269263
2010-10-12 12:40:29 51°9.877 2°38.083 15.3857 4.199253 33.625645 -0.234439
2010-10-12 12:41:29 51°9.917 2°38.404 15.3758 4.193872 33.590304 -0.269263
2010-10-12 12:42:29 51°9.96 2°38.726 15.3539 4.192395 33.58925 -0.269263
2010-10-12 12:43:28 51°10.002 2°39.045 15.3286 4.187753 33.563697 -0.269263
2010-10-12 12:44:29 51°10.044 2°39.378 15.303 4.171714 33.441196 -0.234439
2010-10-12 12:45:29 51°10.086 2°39.704 15.2668 4.159475 33.352646 -0.234439
2010-10-12 12:46:29 51°10.128 2°40.032 15.2416 4.137001 33.18064 -0.199615
2010-10-12 12:47:29 51°10.18 2°40.355 15.2279 4.119487 33.045968 -0.199615
2010-10-12 12:48:29 51°10.238 2°40.674 15.2206 4.104082 32.918779 -0.129967
2010-10-12 12:49:29 51°10.296 2°40.993 15.1979 4.090683 32.805137 -0.129967
2010-10-12 12:50:29 51°10.354 2°41.308 15.1848 4.065995 32.604285 -0.095143
2010-10-12 12:51:28 51°10.41 2°41.618 15.1696 4.055973 32.525234 -0.095143
2010-10-12 12:52:29 51°10.468 2°41.938 15.1444 4.038143 32.378832 -0.060319
2010-10-12 12:53:29 51°10.524 2°42.253 15.1282 4.013457 32.17669 0.044153
2010-10-12 12:54:29 51°10.583 2°42.567 15.1189 3.997105 32.042866 0.009329
2010-10-12 12:55:29 51°10.653 2°42.872 15.1103 3.983707 31.932977 0.044153
2010-10-12 12:56:28 51°10.724 2°43.173 15.1074 3.979593 31.901121 0.009329
2010-10-12 12:57:29 51°10.796 2°43.484 15.0991 3.980015 31.907953 0.009329
2010-10-12 12:58:29 51°10.876 2°43.782 15.0887 3.950372 31.650542 0.113802
2010-10-12 12:59:29 51°11.018 2°44.017 15.1202 3.93687 31.538524 0.148626
2010-10-12 13:00:29 51°11.168 2°44.249 15.1226 3.968516 31.795471 0.009329
2010-10-12 13:01:29 51°11.273 2°44.536 15.1415 3.960499 31.722686 0.009329
2010-10-12 13:02:29 51°11.334 2°44.856 15.1177 3.961237 31.715889 0.078977
2010-10-12 13:03:29 51°11.411 2°45.169 15.1253 3.956596 31.692111 0.044153
2010-10-12 13:04:29 51°11.496 2°45.477 15.1391 3.946785 31.594873 0.078977
2010-10-12 13:05:29 51°11.583 2°45.786 15.1394 3.940983 31.535878 0.113802
2010-10-12 13:06:28 51°11.668 2°46.092 15.151 3.936447 31.494844 0.148626
2010-10-12 13:07:29 51°11.758 2°46.407 15.1394 3.92938 31.424032 0.18345
2010-10-12 13:08:29 51°11.847 2°46.718 15.1322 3.924 31.383938 0.218274
2010-10-12 13:09:29 51°11.935 2°47.028 15.1465 3.916616 31.319975 0.218274
2010-10-12 13:10:29 51°12.021 2°47.339 15.1403 3.904907 31.210341 0.253098
2010-10-12 13:11:29 51°12.109 2°47.653 15.1341 3.899317 31.161786 0.287922
2010-10-12 13:12:29 51°12.199 2°47.965 15.1317 3.905435 31.224612 0.218274
2010-10-12 13:13:28 51°12.286 2°48.272 15.1426 3.902692 31.196608 0.18345
2010-10-12 13:14:29 51°12.378 2°48.589 15.1308 3.899106 31.162298 0.18345
2010-10-12 13:15:29 51°12.469 2°48.901 15.1194 3.896258 31.141733 0.18345
2010-10-12 13:16:29 51°12.569 2°49.204 15.1176 3.890773 31.103065 0.253098
2010-10-12 13:17:28 51°12.669 2°49.502 15.1181 3.885815 31.058947 0.287922
2010-10-12 13:18:29 51°12.774 2°49.812 15.1141 3.884233 31.045464 0.287922
2010-10-12 13:19:29 51°12.878 2°50.118 15.1103 3.881174 31.021818 0.322746
2010-10-12 13:20:29 51°12.987 2°50.421 15.1154 3.877377 30.988628 0.35757
2010-10-12 13:21:29 51°13.095 2°50.729 15.1138 3.874107 30.958351 0.392394
2010-10-12 13:22:29 51°13.204 2°51.036 15.1355 3.872419 30.94334 0.427218
2010-10-12 13:23:29 51°13.313 2°51.344 15.1265 3.871048 30.917504 0.462042
2010-10-12 13:24:29 51°13.422 2°51.654 15.1302 3.870521 30.917558 0.462042
2010-10-12 13:25:29 51°13.538 2°51.957 15.1242 3.868411 30.894655 0.566514
2010-10-12 13:26:29 51°13.658 2°52.256 15.1326 3.868728 30.901615 0.53169
2010-10-12 13:27:29 51°13.776 2°52.552 15.1288 3.869677 30.904722 0.496866
2010-10-12 13:28:29 51°13.897 2°52.846 15.1225 3.869044 30.903836 0.53169
2010-10-12 13:29:29 51°14.019 2°53.139 15.1186 3.868306 30.90142 0.496866
2010-10-12 13:30:29 51°14.143 2°53.435 15.1139 3.868095 30.900729 0.53169
2010-10-12 13:31:29 51°14.268 2°53.731 15.1166 3.868095 30.904879 0.601338
2010-10-12 13:32:29 51°14.393 2°54.029 15.1202 3.86704 30.895499 0.636162
2010-10-12 13:33:29 51°14.517 2°54.326 15.1139 3.865669 30.880936 0.70581
2010-10-12 13:34:29 51°14.643 2°54.625 15.1167 3.86588 30.885181 0.670986
2010-10-12 13:35:28 51°14.766 2°54.921 15.1204 3.864614 30.873335 0.670986
2010-10-12 13:36:29 51°14.888 2°55.232 15.1212 3.861872 30.845994 0.70581
2010-10-12 13:37:29 51°14.969 2°55.569 15.1221 3.861872 30.844219 0.70581
2010-10-12 13:38:29 51°14.983 2°55.872 15.1025 3.861555 30.841998 0.740634
2010-10-12 13:39:29 51°14.971 2°56.077 15.0815 3.85934 30.841238 0.810283
2010-10-12 13:40:29 51°14.954 2°56.274 15.0436 3.85702 30.834804 0.740634
2010-10-12 13:41:29 51°14.975 2°56.479 15.027 3.852696 30.827115 0.775459
2010-10-12 13:42:29 51°15.039 2°56.67 15.0086 3.85122 30.826412 0.670986
2010-10-12 13:43:29 51°15.11 2°56.865 15.0141 3.851536 30.836941 0.636162
2010-10-12 13:44:29 51°15.197 2°57.055 14.967 3.851009 30.838175 0.496866
2010-10-12 13:45:29 51°15.316 2°57.099 15.0254 3.847001 30.831534 0.566514
2010-10-12 13:46:29 51°15.322 2°56.893 15.1048 3.854489 30.837154 0.670986
2010-10-12 13:47:29 51°15.26 2°56.602 15.1128 3.85934 30.835911 0.636162
2010-10-12 13:48:29 51°15.197 2°56.302 15.1047 3.859973 30.844498 0.636162
2010-10-12 13:49:29 51°15.135 2°56 15.136 3.858497 30.834916 0.670986
2010-10-12 13:50:28 51°15.072 2°55.704 15.1464 3.863559 30.858037 0.636162
2010-10-12 13:51:28 51°15.008 2°55.408 15.1419 3.863348 30.850246 0.70581
2010-10-12 13:52:28 51°14.918 2°55.134 15.1296 3.863137 30.852512 0.670986
2010-10-12 13:53:29 51°14.741 2°54.987 15.1366 3.863981 30.865339 0.636162
2010-10-12 13:54:28 51°14.545 2°55.02 15.1273 3.864087 30.871606 0.601338
2010-10-12 13:55:28 51°14.363 2°55.185 14.9976 3.861555 30.855609 0.740634
2010-10-12 13:56:28 51°14.221 2°55.329 15.0131 3.774754 30.191041 0.670986
2010-10-12 13:57:29 51°14.083 2°55.437 15.0607 3.592319 28.53576 0.53169
2010-10-12 13:58:28 51°13.962 2°55.525 15.1017 3.403291 26.848487 0.601338
2010-10-12 13:59:28 51°13.849 2°55.606 15.4832 3.336991 26.254605 0.53169
2010-10-12 14:00:28 51°13.764 2°55.701 15.6505 3.467381 27.193289 -0.304087
2010-10-12 14:01:29 51°13.706 2°55.816 15.7087 3.575231 27.957224 0.670986
2010-10-12 14:02:28 51°13.672 2°55.916 15.8002 3.692695 28.791071 0.427218
2010-10-12 14:03:30 51°13.662 2°55.956 15.8039 3.663482 28.369413 0.775459
2010-10-12 14:04:33 51°13.661 2°55.959 15.822 3.651247 28.100267 0.496866
2010-10-13 07:34:34 51°13.661 2°55.959 20.9814 0.02158 0.113696 -0.652328
2010-10-13 07:35:33 51°13.662 2°55.96 20.9897 0.02158 0.1137 -0.652328
2010-10-13 07:36:31 51°13.662 2°55.961 20.9908 0.02158 0.113704 -0.652328
2010-10-13 07:37:31 51°13.662 2°55.96 20.9954 0.02158 0.113708 -0.652328
2010-10-13 07:38:30 51°13.663 2°55.96 21.0041 0.021476 0.113174 -0.652328
2010-10-13 07:39:31 51°13.663 2°55.961 21.011 0.021476 0.113177 -0.652328
2010-10-13 07:40:31 51°13.663 2°55.961 21.0167 0.021476 0.113183 -0.617504
2010-10-13 07:41:30 51°13.663 2°55.961 21.0176 0.021476 0.113188 -0.652328
2010-10-13 07:42:31 51°13.662 2°55.96 21.0152 0.021476 0.113194 -0.687152
2010-10-13 07:43:31 51°13.662 2°55.96 21.0162 0.021476 0.113197 -0.652328
2010-10-13 07:44:31 51°13.661 2°55.959 21.0222 0.021476 0.113202 -0.652328
2010-10-13 07:45:30 51°13.661 2°55.959 21.0295 0.021372 0.112674 -0.652328
2010-10-13 07:46:31 51°13.661 2°55.959 21.0346 0.021372 0.112677 -0.652328
2010-10-13 07:47:30 51°13.661 2°55.959 21.027 0.021372 0.112688 -0.652328
2010-10-13 07:48:31 51°13.662 2°55.959 21.0226 0.021372 0.112691 -0.687152
2010-10-13 07:49:31 51°13.662 2°55.959 21.0274 0.021372 0.112697 -0.617504
2010-10-13 07:50:31 51°13.662 2°55.96 21.0328 0.021372 0.112708 -0.687152
2010-10-13 07:51:31 51°13.663 2°55.96 21.0376 0.021372 0.112716 -0.652328
2010-10-13 07:52:31 51°13.663 2°55.96 21.0414 0.021372 0.112722 -0.652328
2010-10-13 07:53:31 51°13.663 2°55.96 21.0428 0.021372 0.112728 -0.652328
2010-10-13 07:54:31 51°13.662 2°55.96 21.0471 0.021372 0.112733 -0.652328
2010-10-13 07:55:31 51°13.664 2°55.96 21.0471 0.021372 0.112744 -0.652328
2010-10-13 07:56:31 51°13.664 2°55.96 21.059 0.021372 0.112749 -0.652328
2010-10-13 07:57:31 51°13.663 2°55.96 21.0528 0.021268 0.112218 -0.687152
2010-10-13 07:58:31 51°13.663 2°55.96 21.0607 0.021372 0.112763 -0.652328
2010-10-13 07:59:31 51°13.663 2°55.96 21.0597 0.021372 0.112769 -0.652328
2010-10-13 08:00:31 51°13.664 2°55.961 21.0669 0.021268 0.112237 -0.687152
2010-10-13 08:01:31 51°13.663 2°55.961 21.0822 0.021268 0.112243 -0.687152
2010-10-13 08:02:31 51°13.662 2°55.96 21.0726 0.021268 0.112248 -0.652328
2010-10-13 08:03:31 51°13.662 2°55.96 21.0799 0.021268 0.112254 -0.687152
2010-10-13 08:04:31 51°13.662 2°55.961 21.0778 0.021268 0.112259 -0.652328
2010-10-13 08:05:31 51°13.662 2°55.961 21.0887 0.021268 0.112265 -0.687152
2010-10-13 08:06:31 51°13.662 2°55.961 21.0891 0.021268 0.112272 -0.652328
2010-10-13 08:07:31 51°13.662 2°55.961 21.0863 0.021268 0.112278 -0.652328
2010-10-13 08:08:31 51°13.662 2°55.962 21.0821 0.021268 0.112286 -0.687152
2010-10-13 08:09:31 51°13.663 2°55.962 21.0894 0.021268 0.112295 -0.652328
2010-10-13 08:10:31 51°13.663 2°55.962 21.0951 0.021164 0.111763 -0.652328
2010-10-13 08:11:31 51°13.663 2°55.962 21.1001 0.021164 0.111769 -0.652328
2010-10-13 08:12:31 51°13.664 2°55.962 21.0966 0.021164 0.111775 -0.652328
2010-10-13 08:13:31 51°13.665 2°55.962 21.1 0.021164 0.111781 -0.652328
2010-10-13 08:14:31 51°13.665 2°55.962 21.1019 0.021164 0.111786 -0.687152
2010-10-13 08:15:31 51°13.664 2°55.962 21.1071 0.021164 0.111792 -0.652328
2010-10-13 08:16:31 51°13.664 2°55.962 21.1129 0.021164 0.111797 -0.652328
2010-10-13 08:17:31 51°13.664 2°55.961 21.1163 0.021164 0.111803 -0.652328
2010-10-13 08:18:31 51°13.664 2°55.961 21.1136 0.021164 0.111809 -0.652328
2010-10-13 08:19:31 51°13.664 2°55.961 21.1147 0.021164 0.111814 -0.652328
2010-10-13 08:20:31 51°13.664 2°55.961 21.1166 0.021164 0.11182 -0.652328
2010-10-13 08:21:31 51°13.664 2°55.961 21.1202 0.021164 0.111826 -0.652328
2010-10-13 08:22:31 51°13.664 2°55.961 21.1241 0.021164 0.111831 -0.652328
2010-10-13 08:23:31 51°13.664 2°55.962 21.1225 0.021164 0.111837 -0.652328
2010-10-13 08:24:31 51°13.664 2°55.962 21.1256 0.021164 0.11184 -0.652328
2010-10-13 08:25:31 51°13.663 2°55.962 21.1249 0.021164 0.111848 -0.652328
2010-10-13 08:26:31 51°13.663 2°55.962 21.1308 0.021164 0.111853 -0.652328
2010-10-13 08:27:31 51°13.664 2°55.96 21.1291 0.021164 0.111859 -0.687152
2010-10-13 08:28:31 51°13.663 2°55.96 21.1315 0.021164 0.111865 -0.652328
2010-10-13 08:29:31 51°13.662 2°55.96 21.1332 0.021164 0.11187 -0.652328
2010-10-13 08:30:31 51°13.661 2°55.96 21.1353 0.021164 0.111876 -0.652328
2010-10-13 08:31:31 51°13.662 2°55.96 21.1347 0.021164 0.111879 -0.652328
2010-10-13 08:32:31 51°13.662 2°55.959 21.1344 0.021164 0.111883 -0.652328
2010-10-13 08:33:31 51°13.663 2°55.959 21.1381 0.021164 0.111887 -0.652328
2010-10-13 08:34:31 51°13.663 2°55.959 21.1381 0.021164 0.111892 -0.652328
2010-10-13 08:35:31 51°13.663 2°55.96 21.1411 0.021164 0.111893 -0.652328
2010-10-13 08:36:31 51°13.662 2°55.96 21.1499 0.021164 0.1119 -0.652328
2010-10-13 08:37:31 51°13.663 2°55.96 21.1555 0.021164 0.111901 -0.652328
2010-10-13 08:38:31 51°13.663 2°55.96 21.1581 0.021164 0.111904 -0.652328
2010-10-13 08:39:31 51°13.663 2°55.96 21.1538 0.021164 0.111911 -0.652328
2010-10-13 08:40:31 51°13.663 2°55.96 21.1603 0.02106 0.111375 -0.687152
2010-10-13 08:41:31 51°13.663 2°55.961 21.1575 0.02106 0.111378 -0.652328
2010-10-13 08:42:31 51°13.663 2°55.96 21.1588 0.02106 0.111379 -0.652328
2010-10-13 08:43:30 51°13.663 2°55.959 21.1573 0.02106 0.111384 -0.652328
2010-10-13 08:44:31 51°13.663 2°55.958 21.159 0.02106 0.111388 -0.687152
2010-10-13 08:45:31 51°13.663 2°55.958 21.1634 0.02106 0.111395 -0.687152
2010-10-13 08:46:31 51°13.663 2°55.958 21.1618 0.02106 0.111396 -0.687152
2010-10-13 08:47:31 51°13.663 2°55.959 21.1592 0.02106 0.111399 -0.687152
2010-10-13 08:48:31 51°13.663 2°55.959 21.166 0.02106 0.111404 -0.652328
2010-10-13 08:49:31 51°13.663 2°55.96 21.1625 0.02106 0.111409 -0.687152
2010-10-13 08:50:31 51°13.663 2°55.959 21.1622 0.02106 0.111413 -0.687152
2010-10-13 08:51:31 51°13.664 2°55.959 21.1647 0.02106 0.111416 -0.687152
2010-10-13 08:52:30 51°13.664 2°55.96 21.1629 0.02106 0.111421 -0.687152
2010-10-13 08:53:31 51°13.663 2°55.96 21.1699 0.02106 0.111426 -0.687152
2010-10-13 08:54:31 51°13.663 2°55.96 21.1764 0.02106 0.111427 -0.687152
2010-10-13 08:55:30 51°13.662 2°55.96 21.1677 0.02106 0.111432 -0.652328
2010-10-13 08:56:31 51°13.662 2°55.96 21.1686 0.02106 0.111438 -0.687152
2010-10-13 08:57:30 51°13.663 2°55.96 21.1679 0.02106 0.111443 -0.687152
2010-10-13 08:58:31 51°13.662 2°55.959 21.1726 0.02106 0.111444 -0.687152
2010-10-13 08:59:30 51°13.662 2°55.96 21.1762 0.02106 0.111447 -0.652328
2010-10-13 09:00:31 51°13.662 2°55.959 21.181 0.02106 0.111449 -0.687152
2010-10-13 09:01:30 51°13.662 2°55.96 21.183 0.02106 0.111451 -0.652328
2010-10-13 09:02:31 51°13.662 2°55.961 21.1836 0.02106 0.111452 -0.652328
2010-10-13 09:03:31 51°13.662 2°55.96 21.1811 0.021164 0.111992 -0.652328
2010-10-13 09:04:30 51°13.662 2°55.961 21.1906 0.02106 0.111455 -0.687152
2010-10-13 09:05:31 51°13.662 2°55.96 21.1958 0.02106 0.111458 -0.687152
2010-10-13 09:06:30 51°13.662 2°55.96 21.1931 0.02106 0.111463 -0.687152
2010-10-13 09:07:31 51°13.663 2°55.96 21.1931 0.02106 0.111465 -0.652328
2010-10-13 09:08:30 51°13.663 2°55.96 21.1905 0.02106 0.111468 -0.687152
2010-10-13 09:09:31 51°13.663 2°55.96 21.1854 0.021164 0.112011 -0.687152
2010-10-13 09:10:31 51°13.662 2°55.961 21.1974 0.02106 0.111474 -0.652328
2010-10-13 09:11:31 51°13.662 2°55.961 21.2028 0.02106 0.111475 -0.687152
2010-10-13 09:12:31 51°13.662 2°55.96 21.1906 0.021164 0.11202 -0.687152
2010-10-13 09:13:31 51°13.662 2°55.96 21.1975 0.021164 0.112023 -0.687152
2010-10-13 09:14:31 51°13.662 2°55.96 21.213 0.02106 0.111486 -0.687152
2010-10-13 09:15:31 51°13.662 2°55.96 21.2052 0.02106 0.111488 -0.687152
2010-10-13 09:16:31 51°13.662 2°55.96 21.2108 0.02106 0.111489 -0.687152
2010-10-13 09:17:31 51°13.662 2°55.96 21.2151 0.02106 0.111491 -0.652328
2010-10-13 09:18:31 51°13.662 2°55.961 21.21 0.02106 0.111491 -0.652328
2010-10-13 09:19:31 51°13.662 2°55.961 21.2173 0.02106 0.111496 -0.652328
2010-10-13 09:20:31 51°13.662 2°55.961 21.2235 0.02106 0.111499 -0.687152
2010-10-13 09:21:31 51°13.663 2°55.961 21.2215 0.02106 0.111502 -0.687152
2010-10-13 09:22:31 51°13.663 2°55.961 21.2115 0.02106 0.111505 -0.652328
2010-10-13 09:23:31 51°13.662 2°55.961 21.2241 0.02106 0.111508 -0.652328
2010-10-13 09:24:31 51°13.662 2°55.962 21.232 0.02106 0.111513 -0.652328
2010-10-13 09:25:31 51°13.662 2°55.961 21.2365 0.02106 0.111514 -0.652328
2010-10-13 09:26:31 51°13.662 2°55.961 21.2249 0.02106 0.111517 -0.652328
2010-10-13 09:27:31 51°13.662 2°55.961 21.2269 0.02106 0.111519 -0.687152
2010-10-13 09:28:31 51°13.662 2°55.96 21.2298 0.02106 0.111522 -0.687152
2010-10-13 09:29:31 51°13.662 2°55.956 21.2234 0.02106 0.111527 -0.687152
2010-10-13 09:30:31 51°13.662 2°55.958 21.2255 0.02106 0.111528 -0.687152
2010-10-13 09:31:31 51°13.662 2°55.959 21.2305 0.02106 0.11153 -0.687152
2010-10-13 09:32:31 51°13.662 2°55.96 21.2318 0.02106 0.111531 -0.652328
2010-10-13 09:33:31 51°13.663 2°55.96 21.2355 0.02106 0.111536 -0.652328
2010-10-13 09:34:31 51°13.665 2°55.957 21.2377 0.02106 0.111541 -0.652328
2010-10-13 09:35:31 51°13.665 2°55.957 21.2368 0.02106 0.111545 -0.652328
2010-10-13 09:36:31 51°13.666 2°55.957 21.2406 0.02106 0.11155 -0.652328
2010-10-13 09:37:31 51°13.665 2°55.957 21.2412 0.02106 0.111553 -0.652328
2010-10-13 09:38:31 51°13.664 2°55.958 21.2309 0.02106 0.111553 -0.687152
2010-10-13 09:39:31 51°13.664 2°55.957 21.2308 0.02106 0.111553 -0.652328
2010-10-13 09:40:31 51°13.664 2°55.958 21.2324 0.02106 0.111556 -0.652328
2010-10-13 09:41:31 51°13.665 2°55.958 21.2404 0.021164 0.112098 -0.687152
2010-10-13 09:42:31 51°13.664 2°55.958 21.2413 0.021164 0.112101 -0.687152
2010-10-13 09:43:31 51°13.663 2°55.959 21.2449 0.02106 0.111564 -0.687152
2010-10-13 09:44:31 51°13.664 2°55.959 21.2446 0.02106 0.111567 -0.652328
2010-10-13 09:45:31 51°13.662 2°55.96 21.2505 0.02106 0.11157 -0.652328
2010-10-13 09:46:31 51°13.662 2°55.961 21.2496 0.02106 0.111572 -0.687152
2010-10-13 09:47:31 51°13.662 2°55.96 21.2482 0.02106 0.11157 -0.687152
2010-10-13 09:48:31 51°13.662 2°55.96 21.2505 0.02106 0.111573 -0.687152
2010-10-13 09:49:31 51°13.662 2°55.96 21.2503 0.02106 0.111575 -0.687152
2010-10-13 09:50:31 51°13.663 2°55.959 21.2534 0.02106 0.111578 -0.687152
2010-10-13 09:51:30 51°13.666 2°55.958 21.2604 0.02106 0.111578 -0.652328
2010-10-13 09:52:31 51°13.669 2°55.959 21.2619 0.02106 0.11158 -0.652328
2010-10-13 09:53:31 51°13.666 2°55.958 21.2567 0.02106 0.11158 -0.687152
2010-10-13 09:54:31 51°13.662 2°55.958 21.261 0.02106 0.111583 -0.687152
2010-10-13 09:55:30 51°13.663 2°55.958 21.2749 0.02106 0.111586 -0.687152
2010-10-13 09:56:31 51°13.664 2°55.959 21.2734 0.02106 0.111586 -0.652328
2010-10-13 09:57:30 51°13.664 2°55.959 21.2748 0.02106 0.111588 -0.687152
2010-10-13 09:58:30 51°13.664 2°55.96 21.2664 0.02106 0.111589 -0.652328
2010-10-13 09:59:31 51°13.662 2°55.959 21.255 0.02106 0.111591 -0.687152
2010-10-13 10:00:31 51°13.663 2°55.959 21.2706 0.02106 0.111594 -0.687152
2010-10-13 10:01:30 51°13.664 2°55.959 21.2723 0.02106 0.111594 -0.687152
2010-10-13 10:02:31 51°13.665 2°55.959 21.2625 0.02106 0.111598 -0.652328
2010-10-13 10:03:31 51°13.658 2°55.957 21.2578 0.02106 0.1116 -0.687152
2010-10-13 10:04:30 51°13.658 2°55.958 21.2623 0.02106 0.111602 -0.687152
2010-10-13 10:05:30 51°13.658 2°55.958 21.2678 0.02106 0.111603 -0.687152
2010-10-13 10:06:30 51°13.658 2°55.958 21.2667 0.02106 0.111606 -0.721976
2010-10-13 10:07:30 51°13.658 2°55.958 21.2725 0.02106 0.111606 -0.687152
2010-10-13 10:08:30 51°13.644 2°55.955 21.2794 0.02106 0.111609 -0.687152
2010-10-13 10:09:29 51°13.659 2°55.957 21.2739 0.02106 0.111612 -0.687152
2010-10-13 10:10:31 51°13.658 2°55.958 21.2756 0.02106 0.111614 -0.687152
2010-10-13 10:11:30 51°13.661 2°55.959 21.2749 0.02106 0.111617 -0.687152
2010-10-13 10:12:30 51°13.661 2°55.959 21.2775 0.02106 0.111619 -0.687152
2010-10-13 10:13:30 51°13.662 2°55.96 21.2797 0.02106 0.11162 -0.687152
2010-10-13 10:14:31 51°13.66 2°55.962 21.2833 0.02106 0.111623 -0.652328
2010-10-13 10:15:29 51°13.661 2°55.965 21.2838 0.02106 0.111623 -0.687152
2010-10-13 10:16:30 51°13.663 2°55.963 21.2852 0.02106 0.111623 -0.721976
2010-10-13 10:17:30 51°13.662 2°55.963 21.2883 0.02106 0.111623 -0.687152
2010-10-13 10:18:30 51°13.662 2°55.963 21.2886 0.02106 0.111623 -0.687152
2010-10-13 10:19:30 51°13.664 2°55.962 21.288 0.02106 0.111623 -0.687152
2010-10-13 10:20:30 51°13.658 2°55.967 21.2883 0.02106 0.111623 -0.721976
2010-10-13 10:21:30 51°13.655 2°55.965 21.2953 0.02106 0.111623 -0.687152
2010-10-13 10:22:29 51°13.653 2°55.966 21.2871 0.02106 0.111623 -0.687152
2010-10-13 10:23:30 51°13.652 2°55.969 21.29 0.02106 0.111625 -0.687152
2010-10-13 10:24:29 51°13.65 2°55.97 21.2934 0.02106 0.111623 -0.687152
2010-10-13 10:25:30 51°13.647 2°55.971 21.2966 0.02106 0.111625 -0.687152